createdAt,value
2019-03-23T00:01:52.349Z,11.53
2019-03-23T00:04:25.388Z,12.23
2019-03-23T00:06:56.159Z,11.20
2019-03-23T00:09:27.542Z,10.90
2019-03-23T00:11:58.578Z,10.53
2019-03-23T00:14:29.586Z,10.40
2019-03-23T00:17:00.287Z,10.70
2019-03-23T00:19:31.675Z,10.10
2019-03-23T00:22:04.163Z,11.17
2019-03-23T00:24:35.367Z,11.10
2019-03-23T00:27:06.252Z,10.60
2019-03-23T00:29:37.218Z,11.00
2019-03-23T00:32:09.389Z,10.53
2019-03-23T00:34:40.239Z,11.20
2019-03-23T00:37:12.417Z,11.12
2019-03-23T00:39:43.295Z,10.68
2019-03-23T00:42:14.251Z,11.77
2019-03-23T00:44:45.363Z,11.60
2019-03-23T00:47:16.435Z,11.50
2019-03-23T00:49:47.477Z,12.10
2019-03-23T00:52:18.523Z,11.40
2019-03-23T00:54:49.512Z,11.00
2019-03-23T00:57:20.584Z,10.67
2019-03-23T00:59:51.889Z,11.40
2019-03-23T01:02:22.938Z,10.70
2019-03-23T01:04:53.835Z,13.40
2019-03-23T01:07:24.806Z,11.07
2019-03-23T01:09:55.786Z,12.30
2019-03-23T01:12:26.752Z,10.80
2019-03-23T01:14:57.816Z,12.03
2019-03-23T01:17:29.199Z,11.80
2019-03-23T01:19:59.901Z,11.60
2019-03-23T01:22:31.837Z,13.00
2019-03-23T01:25:02.812Z,12.57
2019-03-23T01:27:33.795Z,11.80
2019-03-23T01:30:05.180Z,13.33
2019-03-23T01:32:36.009Z,12.13
2019-03-23T01:35:08.434Z,13.73
2019-03-23T01:37:39.287Z,11.63
2019-03-23T01:40:10.575Z,11.50
2019-03-23T01:42:41.736Z,10.30
2019-03-23T01:45:14.160Z,11.60
2019-03-23T01:47:45.290Z,12.10
2019-03-23T01:50:16.246Z,12.67
2019-03-23T01:52:47.427Z,11.90
2019-03-23T01:55:18.370Z,12.70
2019-03-23T01:57:49.225Z,11.47
2019-03-23T02:00:20.016Z,12.13
2019-03-23T02:02:51.124Z,11.30
2019-03-23T02:05:22.107Z,14.00
2019-03-23T02:07:52.918Z,13.03
2019-03-23T02:10:23.782Z,13.93
2019-03-23T02:12:54.524Z,12.95
2019-03-23T02:15:25.254Z,14.53
2019-03-23T02:17:56.917Z,16.23
2019-03-23T02:20:27.747Z,13.03
2019-03-23T02:22:58.867Z,12.50
2019-03-23T02:25:29.872Z,12.20
2019-03-23T02:28:01.137Z,12.67
2019-03-23T02:30:32.393Z,13.13
2019-03-23T02:33:03.437Z,12.83
2019-03-23T02:35:34.538Z,14.00
2019-03-23T02:38:05.635Z,12.70
2019-03-23T02:40:36.821Z,12.90
2019-03-23T02:43:07.945Z,12.50
2019-03-23T02:45:39.057Z,13.40
2019-03-23T02:48:09.858Z,12.50
2019-03-23T02:50:40.699Z,11.57
2019-03-23T02:53:11.871Z,11.90
2019-03-23T02:55:42.811Z,12.20
2019-03-23T02:58:13.776Z,11.67
2019-03-23T03:00:44.890Z,12.77
2019-03-23T03:03:15.827Z,13.97
2019-03-23T03:05:46.795Z,12.13
2019-03-23T03:08:17.817Z,12.53
2019-03-23T03:10:48.623Z,13.47
2019-03-23T03:13:20.078Z,11.87
2019-03-23T03:15:50.761Z,13.13
2019-03-23T03:18:21.818Z,11.97
2019-03-23T03:20:52.764Z,12.70
2019-03-23T03:23:23.531Z,11.53
2019-03-23T03:25:54.463Z,12.73
2019-03-23T03:28:25.438Z,13.07
2019-03-23T03:30:56.253Z,12.88
2019-03-23T03:33:27.133Z,13.07
2019-03-23T03:35:58.209Z,12.67
2019-03-23T03:38:29.152Z,12.77
2019-03-23T03:41:00.212Z,13.60
2019-03-23T03:43:30.959Z,12.40
2019-03-23T03:46:01.956Z,12.03
2019-03-23T03:48:32.934Z,12.90
2019-03-23T03:51:03.792Z,12.60
2019-03-23T03:53:34.850Z,13.97
2019-03-23T03:56:06.170Z,12.75
2019-03-23T03:58:37.133Z,11.17
2019-03-23T04:01:08.015Z,13.23
2019-03-23T04:03:38.800Z,13.13
2019-03-23T04:06:09.917Z,12.57
2019-03-23T04:08:42.251Z,12.43
2019-03-23T04:11:13.405Z,13.93
2019-03-23T04:13:44.627Z,12.83
2019-03-23T04:16:15.462Z,12.60
2019-03-23T04:18:46.881Z,12.50
2019-03-23T04:21:17.590Z,11.50
2019-03-23T04:23:48.474Z,12.47
2019-03-23T04:26:19.428Z,12.10
2019-03-23T04:28:50.333Z,12.73
2019-03-23T04:31:21.334Z,12.60
2019-03-23T04:33:52.272Z,12.68
2019-03-23T04:36:23.251Z,13.13
2019-03-23T04:38:54.356Z,12.23
2019-03-23T04:41:25.272Z,12.90
2019-03-23T04:43:56.446Z,12.87
2019-03-23T04:46:27.143Z,12.00
2019-03-23T04:48:57.992Z,13.37
2019-03-23T04:51:29.032Z,11.90
2019-03-23T04:54:00.022Z,13.00
2019-03-23T04:56:30.759Z,12.90
2019-03-23T04:59:01.796Z,14.07
2019-03-23T05:01:32.702Z,13.20
2019-03-23T05:04:03.624Z,13.33
2019-03-23T05:06:34.563Z,11.73
2019-03-23T05:09:09.602Z,12.20
2019-03-23T05:11:40.548Z,12.63
2019-03-23T05:14:11.737Z,12.03
2019-03-23T05:16:42.836Z,14.77
2019-03-23T05:19:13.851Z,12.87
2019-03-23T05:21:44.801Z,12.77
2019-03-23T05:24:16.167Z,13.00
2019-03-23T05:26:47.362Z,13.53
2019-03-23T05:29:18.574Z,12.43
2019-03-23T05:31:49.897Z,12.23
2019-03-23T05:34:21.184Z,12.77
2019-03-23T05:36:52.277Z,11.80
2019-03-23T05:39:23.333Z,12.60
2019-03-23T05:41:54.421Z,12.87
2019-03-23T05:44:25.428Z,12.70
2019-03-23T05:46:56.208Z,13.40
2019-03-23T05:49:27.374Z,13.50
2019-03-23T05:51:58.359Z,13.43
2019-03-23T05:54:29.576Z,12.07
2019-03-23T05:57:00.606Z,11.10
2019-03-23T05:59:31.833Z,11.73
2019-03-23T06:02:02.965Z,11.93
2019-03-23T06:04:34.154Z,11.10
2019-03-23T06:07:05.197Z,10.77
2019-03-23T06:09:36.118Z,10.17
2019-03-23T06:12:07.046Z,10.80
2019-03-23T06:14:38.001Z,10.87
2019-03-23T06:17:09.010Z,10.57
2019-03-23T06:19:40.075Z,10.20
2019-03-23T06:22:10.751Z,10.03
2019-03-23T06:24:41.605Z,9.23
2019-03-23T06:27:12.882Z,9.90
2019-03-23T06:29:44.043Z,10.50
2019-03-23T06:32:14.884Z,10.17
2019-03-23T06:34:45.822Z,9.83
2019-03-23T06:37:16.864Z,10.17
2019-03-23T06:39:48.043Z,10.07
2019-03-23T06:42:19.848Z,11.60
2019-03-23T06:44:50.816Z,11.80
2019-03-23T06:47:21.792Z,11.90
2019-03-23T06:49:52.688Z,11.00
2019-03-23T06:52:23.684Z,10.60
2019-03-23T06:54:54.678Z,11.50
2019-03-23T06:57:26.006Z,11.90
2019-03-23T06:59:57.000Z,12.07
2019-03-23T07:02:28.107Z,16.50
2019-03-23T07:04:58.838Z,17.47
2019-03-23T07:07:30.898Z,15.13
2019-03-23T07:10:02.128Z,13.23
2019-03-23T07:12:35.935Z,12.40
2019-03-23T07:15:19.098Z,12.50
2019-03-23T07:17:41.013Z,12.97
2019-03-23T07:20:12.789Z,14.37
2019-03-23T07:22:43.524Z,16.07
2019-03-23T07:25:14.588Z,54.83
2019-03-23T07:27:45.618Z,17.00
2019-03-23T07:30:16.974Z,16.17
2019-03-23T07:32:48.208Z,16.50
2019-03-23T07:35:19.387Z,15.60
2019-03-23T07:37:50.773Z,14.15
2019-03-23T07:40:21.753Z,13.57
2019-03-23T07:42:52.970Z,13.10
2019-03-23T07:45:24.092Z,13.07
2019-03-23T07:47:55.228Z,14.10
2019-03-23T07:50:26.414Z,13.27
2019-03-23T07:52:57.536Z,13.70
2019-03-23T07:55:28.716Z,13.97
2019-03-23T07:57:59.726Z,13.77
2019-03-23T08:00:30.894Z,14.40
2019-03-23T08:03:02.218Z,13.50
2019-03-23T08:05:33.354Z,12.77
2019-03-23T08:08:04.648Z,12.60
2019-03-23T08:10:35.984Z,12.33
2019-03-23T08:13:06.964Z,12.03
2019-03-23T08:15:38.186Z,12.90
2019-03-23T08:18:09.338Z,16.00
2019-03-23T08:20:40.288Z,14.23
2019-03-23T08:23:11.655Z,13.33
2019-03-23T08:25:42.790Z,10.50
2019-03-23T08:28:14.003Z,12.17
2019-03-23T08:30:44.907Z,12.10
2019-03-23T08:33:18.170Z,11.80
2019-03-23T08:35:49.402Z,11.70
2019-03-23T08:38:20.561Z,11.80
2019-03-23T08:40:51.532Z,12.07
2019-03-23T08:43:22.767Z,11.00
2019-03-23T08:45:54.039Z,11.67
2019-03-23T08:48:25.472Z,12.10
2019-03-23T08:50:56.792Z,12.60
2019-03-23T08:53:28.748Z,12.73
2019-03-23T08:55:59.911Z,12.15
2019-03-23T08:58:30.945Z,11.80
2019-03-23T09:01:02.062Z,10.50
2019-03-23T09:03:33.153Z,12.60
2019-03-23T09:06:04.355Z,12.27
2019-03-23T09:08:35.466Z,11.03
2019-03-23T09:11:06.749Z,12.05
2019-03-23T09:13:40.823Z,11.23
2019-03-23T09:16:10.598Z,10.58
2019-03-23T09:18:42.269Z,11.70
2019-03-23T09:21:13.343Z,10.88
2019-03-23T09:23:44.512Z,11.05
2019-03-23T09:26:15.877Z,10.35
2019-03-23T09:28:47.822Z,10.48
2019-03-23T09:31:19.087Z,10.05
2019-03-23T09:33:51.291Z,9.48
2019-03-23T09:36:23.604Z,10.35
2019-03-23T09:38:55.056Z,9.25
2019-03-23T09:41:26.052Z,9.53
2019-03-23T09:43:57.195Z,9.85
2019-03-23T09:46:28.282Z,10.45
2019-03-23T09:49:00.599Z,9.53
2019-03-23T09:51:31.542Z,10.03
2019-03-23T09:54:02.765Z,10.60
2019-03-23T09:56:34.083Z,10.43
2019-03-23T09:59:05.046Z,10.90
2019-03-23T10:01:36.121Z,10.48
2019-03-23T10:04:07.371Z,10.82
2019-03-23T10:06:38.432Z,11.30
2019-03-23T10:09:09.458Z,9.70
2019-03-23T10:11:40.938Z,10.18
2019-03-23T10:14:12.117Z,10.60
2019-03-23T10:24:12.167Z,12.10
2019-03-23T10:29:13.132Z,11.90
2019-03-23T10:31:44.458Z,11.50
2019-03-23T10:36:46.110Z,11.87
2019-03-23T10:41:47.250Z,12.40
2019-03-23T10:44:18.249Z,12.80
2019-03-23T10:46:49.367Z,13.40
2019-03-23T10:49:20.461Z,13.20
2019-03-23T10:54:22.344Z,13.25
2019-03-23T10:56:53.162Z,15.50
2019-03-23T10:59:24.008Z,14.95
2019-03-23T11:04:25.750Z,15.40
2019-03-23T11:06:56.985Z,15.05
2019-03-23T11:29:29.805Z,12.40
2019-03-23T11:32:00.943Z,13.20
2019-03-23T11:34:32.257Z,12.15
2019-03-23T11:37:03.636Z,12.30
2019-03-23T11:39:34.783Z,12.50
2019-03-23T11:42:05.895Z,12.00
2019-03-23T11:47:06.251Z,13.40
2019-03-23T11:49:37.353Z,12.90
2019-03-23T11:52:08.163Z,13.70
2019-03-23T11:54:38.944Z,12.30
2019-03-23T12:02:09.204Z,12.15
2019-03-23T12:04:40.217Z,13.00
2019-03-23T12:07:11.494Z,12.85
2019-03-23T12:09:42.610Z,13.40
2019-03-23T12:12:13.681Z,14.37
2019-03-23T12:14:45.002Z,14.50
2019-03-23T12:17:16.114Z,14.50
2019-03-23T12:19:47.394Z,14.73
2019-03-23T12:22:18.483Z,14.40
2019-03-23T12:27:19.025Z,14.20
2019-03-23T12:29:50.081Z,14.65
2019-03-23T12:32:21.246Z,14.50
2019-03-23T12:34:52.388Z,13.90
2019-03-23T12:37:23.346Z,15.50
2019-03-23T12:42:24.936Z,14.20
2019-03-23T12:44:56.091Z,14.70
2019-03-23T12:47:28.147Z,15.75
2019-03-23T12:49:59.570Z,14.58
2019-03-23T12:52:31.664Z,14.60
2019-03-23T12:55:02.709Z,14.97
2019-03-23T12:57:33.955Z,16.27
2019-03-23T13:05:04.768Z,16.10
2019-03-23T13:10:06.276Z,16.25
2019-03-23T13:12:37.373Z,16.30
2019-03-23T13:20:08.835Z,18.45
2019-03-23T13:22:40.308Z,18.10
2019-03-23T13:25:11.274Z,19.70
2019-03-23T13:27:42.492Z,20.20
2019-03-23T13:30:14.250Z,20.75
2019-03-23T13:32:45.477Z,20.75
2019-03-23T13:35:16.720Z,21.70
2019-03-23T13:40:18.919Z,21.10
2019-03-23T13:42:50.000Z,21.65
2019-03-23T13:45:21.157Z,22.70
2019-03-23T13:47:52.299Z,25.40
2019-03-23T13:55:31.213Z,26.10
2019-03-23T13:58:12.534Z,26.60
2019-03-23T14:00:44.760Z,26.93
2019-03-23T14:03:15.819Z,29.10
2019-03-23T14:05:46.793Z,29.77
2019-03-23T14:08:17.784Z,32.13
2019-03-23T14:10:49.652Z,31.40
2019-03-23T14:13:20.629Z,33.20
2019-03-23T14:15:51.832Z,35.10
2019-03-23T14:18:22.936Z,34.17
2019-03-23T14:20:54.287Z,33.17
2019-03-23T14:23:25.622Z,32.17
2019-03-23T14:25:56.750Z,32.63
2019-03-23T14:28:28.822Z,33.20
2019-03-23T14:31:00.045Z,30.40
2019-03-23T14:33:32.902Z,31.30
2019-03-23T14:36:04.429Z,30.83
2019-03-23T14:38:35.903Z,30.23
2019-03-23T14:41:07.368Z,31.60
2019-03-23T14:43:38.980Z,34.13
2019-03-23T14:46:10.075Z,31.70
2019-03-23T14:48:45.497Z,31.80
2019-03-23T14:51:16.550Z,34.70
2019-03-23T14:53:47.824Z,32.93
2019-03-23T14:56:18.855Z,31.80
2019-03-23T14:58:49.742Z,32.10
2019-03-23T15:01:21.078Z,32.80
2019-03-23T15:03:52.264Z,33.43
2019-03-23T15:06:23.682Z,34.23
2019-03-23T15:08:56.167Z,33.00
2019-03-23T15:11:27.253Z,33.07
2019-03-23T15:13:58.756Z,33.23
2019-03-23T15:16:29.869Z,32.10
2019-03-23T15:19:02.068Z,32.87
2019-03-23T15:21:33.089Z,32.30
2019-03-23T15:24:05.663Z,32.93
2019-03-23T15:26:36.569Z,31.50
2019-03-23T15:29:08.526Z,34.05
2019-03-23T15:31:39.948Z,31.70
2019-03-23T15:34:11.953Z,30.50
2019-03-23T15:36:43.058Z,31.80
2019-03-23T15:39:14.507Z,31.00
2019-03-23T15:41:45.484Z,31.03
2019-03-23T15:44:16.549Z,32.57
2019-03-23T15:46:47.704Z,31.07
2019-03-23T15:49:18.939Z,31.47
2019-03-23T15:51:52.587Z,31.97
2019-03-23T15:54:23.557Z,32.60
2019-03-23T15:56:54.529Z,31.47
2019-03-23T15:59:26.018Z,31.97
2019-03-23T16:01:57.548Z,32.20
2019-03-23T16:04:29.060Z,31.37
2019-03-23T16:07:00.333Z,32.80
2019-03-23T16:09:32.320Z,32.90
2019-03-23T16:12:03.541Z,32.83
2019-03-23T16:14:34.680Z,31.47
2019-03-23T16:17:05.791Z,33.00
2019-03-23T16:19:37.073Z,32.77
2019-03-23T16:22:08.271Z,31.57
2019-03-23T16:24:40.544Z,30.67
2019-03-23T16:27:11.588Z,31.07
2019-03-23T16:29:42.717Z,30.83
2019-03-23T16:32:13.999Z,32.27
2019-03-23T16:34:45.259Z,31.67
2019-03-23T16:37:16.157Z,31.97
2019-03-23T16:39:47.357Z,30.87
2019-03-23T16:42:18.662Z,32.60
2019-03-23T16:44:49.605Z,33.63
2019-03-23T16:47:20.783Z,33.13
2019-03-23T16:49:52.014Z,32.30
2019-03-23T16:52:23.256Z,32.00
2019-03-23T16:54:54.374Z,31.00
2019-03-23T16:57:25.741Z,31.40
2019-03-23T16:59:56.797Z,32.53
2019-03-23T17:02:27.944Z,32.63
2019-03-23T17:04:59.076Z,33.27
2019-03-23T17:07:30.311Z,30.77
2019-03-23T17:10:01.710Z,29.73
2019-03-23T17:12:33.779Z,31.10
2019-03-23T17:15:05.425Z,31.30
2019-03-23T17:17:36.353Z,27.13
2019-03-23T17:20:13.219Z,27.32
2019-03-23T17:22:44.222Z,29.93
2019-03-23T17:25:15.486Z,28.40
2019-03-23T17:27:46.479Z,27.80
2019-03-23T17:30:17.703Z,28.30
2019-03-23T17:32:50.604Z,27.20
2019-03-23T17:35:21.794Z,27.80
2019-03-23T17:37:53.014Z,26.13
2019-03-23T17:40:24.503Z,26.00
2019-03-23T17:43:05.354Z,27.00
2019-03-23T17:45:29.639Z,30.10
2019-03-23T17:48:00.657Z,25.83
2019-03-23T17:50:32.020Z,28.37
2019-03-23T17:53:03.229Z,27.90
2019-03-23T17:55:34.440Z,30.00
2019-03-23T17:58:05.927Z,28.80
2019-03-23T18:00:37.000Z,27.50
2019-03-23T18:03:08.147Z,28.17
2019-03-23T18:05:41.091Z,27.77
2019-03-23T18:08:12.177Z,26.87
2019-03-23T18:10:43.361Z,27.87
2019-03-23T18:13:16.818Z,27.62
2019-03-23T18:15:47.153Z,28.70
2019-03-23T18:18:18.237Z,29.80
2019-03-23T18:20:49.774Z,29.40
2019-03-23T18:23:21.038Z,28.93
2019-03-23T18:25:51.986Z,27.73
2019-03-23T18:28:23.222Z,27.70
2019-03-23T18:30:54.866Z,26.82
2019-03-23T18:33:25.971Z,28.17
2019-03-23T18:35:57.922Z,28.52
2019-03-23T18:38:29.124Z,28.03
2019-03-23T18:41:01.379Z,30.00
2019-03-23T18:43:34.432Z,30.03
2019-03-23T18:46:06.011Z,26.60
2019-03-23T18:48:37.106Z,25.87
2019-03-23T18:51:08.132Z,27.90
2019-03-23T18:53:39.234Z,28.83
2019-03-23T18:56:11.405Z,27.80
2019-03-23T18:58:42.588Z,25.73
2019-03-23T19:01:14.899Z,27.32
2019-03-23T19:03:46.162Z,29.90
2019-03-23T19:06:18.093Z,29.42
2019-03-23T19:08:49.775Z,25.50
2019-03-23T19:11:21.360Z,27.48
2019-03-23T19:13:52.444Z,26.80
2019-03-23T19:16:23.440Z,25.70
2019-03-23T19:18:54.853Z,27.50
2019-03-23T19:21:25.915Z,27.25
2019-03-23T19:23:57.020Z,25.90
2019-03-23T19:26:28.342Z,28.83
2019-03-23T19:28:59.413Z,26.17
2019-03-23T19:31:30.596Z,23.73
2019-03-23T19:34:01.748Z,25.97
2019-03-23T19:36:33.101Z,26.33
2019-03-23T19:39:06.063Z,26.60
2019-03-23T19:41:37.247Z,23.80
2019-03-23T19:44:09.004Z,24.60
2019-03-23T19:46:40.740Z,24.00
2019-03-23T19:49:11.771Z,23.30
2019-03-23T19:51:43.234Z,23.00
2019-03-23T19:54:14.459Z,23.00
2019-03-23T19:56:46.386Z,21.68
2019-03-23T19:59:17.657Z,21.23
2019-03-23T20:01:48.951Z,22.13
2019-03-23T20:04:20.136Z,21.17
2019-03-23T20:06:51.370Z,20.77
2019-03-23T20:09:23.309Z,21.42
2019-03-23T20:11:55.200Z,25.48
2019-03-23T20:14:26.300Z,19.57
2019-03-23T20:16:58.507Z,21.40
2019-03-23T20:19:29.498Z,18.80
2019-03-23T20:22:00.821Z,21.90
2019-03-23T20:24:31.960Z,21.50
2019-03-23T20:27:03.551Z,22.27
2019-03-23T20:29:34.755Z,19.60
2019-03-23T20:32:08.474Z,20.95
2019-03-23T20:34:39.829Z,19.33
2019-03-23T20:37:10.829Z,21.73
2019-03-23T20:39:42.095Z,23.80
2019-03-23T20:42:14.080Z,21.05
2019-03-23T20:44:45.651Z,21.47
2019-03-23T20:47:17.251Z,20.23
2019-03-23T20:49:48.750Z,20.12
2019-03-23T20:52:20.828Z,18.92
2019-03-23T20:54:52.109Z,20.30
2019-03-23T20:57:24.379Z,20.60
2019-03-23T20:59:56.167Z,19.90
2019-03-23T21:02:27.505Z,19.97
2019-03-23T21:04:58.748Z,18.87
2019-03-23T21:07:30.610Z,18.67
2019-03-23T21:10:02.121Z,17.73
2019-03-23T21:12:34.147Z,18.05
2019-03-23T21:15:05.458Z,18.73
2019-03-23T21:17:50.439Z,16.10
2019-03-23T21:20:10.520Z,17.57
2019-03-23T21:22:41.822Z,15.90
2019-03-23T21:25:13.289Z,16.87
2019-03-23T21:27:44.531Z,18.67
2019-03-23T21:30:16.530Z,21.00
2019-03-23T21:32:47.782Z,19.20
2019-03-23T21:35:19.385Z,19.00
2019-03-23T21:37:51.459Z,19.32
2019-03-23T21:40:22.613Z,20.20
2019-03-23T21:42:55.165Z,18.33
2019-03-23T21:45:26.607Z,17.40
2019-03-23T21:47:58.284Z,16.80
2019-03-23T21:50:30.275Z,18.80
2019-03-23T21:53:01.515Z,17.43
2019-03-23T21:55:36.064Z,17.27
2019-03-23T21:58:07.435Z,17.33
2019-03-23T22:00:39.270Z,17.03
2019-03-23T22:03:10.550Z,18.47
2019-03-23T22:05:41.736Z,21.43
2019-03-23T22:08:12.931Z,19.47
2019-03-23T22:10:44.101Z,20.67
2019-03-23T22:13:15.334Z,20.97
2019-03-23T22:15:46.448Z,23.35
2019-03-23T22:18:17.587Z,22.55
2019-03-23T22:20:48.904Z,22.27
2019-03-23T22:23:22.384Z,20.30
2019-03-23T22:25:53.658Z,18.70
2019-03-23T22:28:24.739Z,17.83
2019-03-23T22:30:56.044Z,18.43
2019-03-23T22:33:28.235Z,18.05
2019-03-23T22:35:59.700Z,19.60
2019-03-23T22:38:31.616Z,19.48
2019-03-23T22:41:02.681Z,18.00
2019-03-23T22:43:33.825Z,16.23
2019-03-23T22:46:06.233Z,17.43
2019-03-23T22:48:37.269Z,17.70
2019-03-23T22:51:08.489Z,17.43
2019-03-23T22:53:39.490Z,17.82
2019-03-23T22:56:10.655Z,16.10
2019-03-23T22:58:42.117Z,16.60
2019-03-23T23:01:13.356Z,17.10
2019-03-23T23:03:44.544Z,19.30
2019-03-23T23:06:15.800Z,18.57
2019-03-23T23:08:47.280Z,18.40
2019-03-23T23:11:18.768Z,18.30
2019-03-23T23:13:50.659Z,18.60
2019-03-23T23:16:21.948Z,16.50
2019-03-23T23:18:54.008Z,16.62
2019-03-23T23:21:25.291Z,17.20
2019-03-23T23:23:57.551Z,17.62
2019-03-23T23:26:29.065Z,16.80
2019-03-23T23:29:00.676Z,17.60
2019-03-23T23:31:31.976Z,16.40
2019-03-23T23:34:04.094Z,16.40
2019-03-23T23:36:35.290Z,16.50
2019-03-23T23:39:07.886Z,15.17
2019-03-23T23:41:38.865Z,17.30
2019-03-23T23:44:10.344Z,17.70
2019-03-23T23:46:41.348Z,17.00
2019-03-23T23:49:13.109Z,17.23
2019-03-23T23:51:50.106Z,15.17
2019-03-23T23:54:16.647Z,15.77
2019-03-23T23:56:47.965Z,16.00
2019-03-23T23:59:19.842Z,18.32
